sensor_id;sensor_type;location;lat;lon;timestamp;temperature;humidity
21787;DHT22;11055;50.870;4.316;2023-07-31T00:00:45;17.80;99.90
21787;DHT22;11055;50.870;4.316;2023-07-31T00:03:11;17.70;99.90
21787;DHT22;11055;50.870;4.316;2023-07-31T00:05:37;17.70;99.90
21787;DHT22;11055;50.870;4.316;2023-07-31T00:08:03;17.80;99.90
21787;DHT22;11055;50.870;4.316;2023-07-31T00:10:28;17.90;99.90
21787;DHT22;11055;50.870;4.316;2023-07-31T00:12:54;18.10;99.90
21787;DHT22;11055;50.870;4.316;2023-07-31T00:15:20;18.10;99.90
21787;DHT22;11055;50.870;4.316;2023-07-31T00:17:45;18.20;99.90
21787;DHT22;11055;50.870;4.316;2023-07-31T00:20:11;18.20;99.90
21787;DHT22;11055;50.870;4.316;2023-07-31T00:22:37;18.30;99.90
21787;DHT22;11055;50.870;4.316;2023-07-31T00:25:02;18.30;99.90
21787;DHT22;11055;50.870;4.316;2023-07-31T00:27:28;18.20;99.90
21787;DHT22;11055;50.870;4.316;2023-07-31T00:29:54;18.20;99.90
21787;DHT22;11055;50.870;4.316;2023-07-31T00:32:19;18.10;99.90
21787;DHT22;11055;50.870;4.316;2023-07-31T00:34:45;18.10;99.90
21787;DHT22;11055;50.870;4.316;2023-07-31T00:37:11;18.20;99.90
21787;DHT22;11055;50.870;4.316;2023-07-31T00:39:36;18.20;99.90
21787;DHT22;11055;50.870;4.316;2023-07-31T00:42:02;18.20;99.90
21787;DHT22;11055;50.870;4.316;2023-07-31T00:44:28;18.30;99.90
21787;DHT22;11055;50.870;4.316;2023-07-31T00:46:54;18.20;99.90
21787;DHT22;11055;50.870;4.316;2023-07-31T00:49:21;18.30;99.90
21787;DHT22;11055;50.870;4.316;2023-07-31T00:51:47;18.30;99.90
21787;DHT22;11055;50.870;4.316;2023-07-31T00:54:13;18.40;99.90
21787;DHT22;11055;50.870;4.316;2023-07-31T00:56:40;18.30;99.90
21787;DHT22;11055;50.870;4.316;2023-07-31T00:59:07;18.30;99.90
21787;DHT22;11055;50.870;4.316;2023-07-31T01:01:32;18.30;99.90
21787;DHT22;11055;50.870;4.316;2023-07-31T01:03:58;18.30;99.90
21787;DHT22;11055;50.870;4.316;2023-07-31T01:06:31;18.30;99.90
21787;DHT22;11055;50.870;4.316;2023-07-31T01:11:53;18.10;99.90
21787;DHT22;11055;50.870;4.316;2023-07-31T01:14:21;18.10;99.90
21787;DHT22;11055;50.870;4.316;2023-07-31T01:16:47;18.10;99.90
21787;DHT22;11055;50.870;4.316;2023-07-31T01:19:14;18.20;99.90
21787;DHT22;11055;50.870;4.316;2023-07-31T01:27:28;18.20;99.90
21787;DHT22;11055;50.870;4.316;2023-07-31T01:30:19;18.20;99.90
21787;DHT22;11055;50.870;4.316;2023-07-31T01:32:48;18.20;99.90
21787;DHT22;11055;50.870;4.316;2023-07-31T01:35:15;18.00;99.90
21787;DHT22;11055;50.870;4.316;2023-07-31T01:37:41;17.90;99.90
21787;DHT22;11055;50.870;4.316;2023-07-31T01:40:07;18.00;99.90
21787;DHT22;11055;50.870;4.316;2023-07-31T01:42:33;18.00;99.90
21787;DHT22;11055;50.870;4.316;2023-07-31T01:44:59;18.10;99.90
21787;DHT22;11055;50.870;4.316;2023-07-31T01:47:24;18.10;99.90
21787;DHT22;11055;50.870;4.316;2023-07-31T01:49:50;18.10;99.90
21787;DHT22;11055;50.870;4.316;2023-07-31T01:52:15;18.20;99.90
21787;DHT22;11055;50.870;4.316;2023-07-31T01:54:41;18.20;99.90
21787;DHT22;11055;50.870;4.316;2023-07-31T01:57:07;18.40;99.90
21787;DHT22;11055;50.870;4.316;2023-07-31T01:59:32;18.40;99.90
21787;DHT22;11055;50.870;4.316;2023-07-31T02:01:58;18.50;99.90
21787;DHT22;11055;50.870;4.316;2023-07-31T02:04:24;18.50;99.90
21787;DHT22;11055;50.870;4.316;2023-07-31T02:06:49;18.50;99.90
21787;DHT22;11055;50.870;4.316;2023-07-31T02:09:15;18.50;99.90
21787;DHT22;11055;50.870;4.316;2023-07-31T02:11:40;18.60;99.90
21787;DHT22;11055;50.870;4.316;2023-07-31T02:14:06;18.70;99.90
21787;DHT22;11055;50.870;4.316;2023-07-31T02:16:32;18.80;99.90
21787;DHT22;11055;50.870;4.316;2023-07-31T02:18:57;18.80;99.90
21787;DHT22;11055;50.870;4.316;2023-07-31T02:21:23;18.60;99.90
21787;DHT22;11055;50.870;4.316;2023-07-31T02:23:48;18.60;99.90
21787;DHT22;11055;50.870;4.316;2023-07-31T02:26:14;18.70;99.90
21787;DHT22;11055;50.870;4.316;2023-07-31T02:28:40;18.60;99.90
21787;DHT22;11055;50.870;4.316;2023-07-31T02:31:08;18.70;99.90
21787;DHT22;11055;50.870;4.316;2023-07-31T02:33:33;18.80;99.90
21787;DHT22;11055;50.870;4.316;2023-07-31T02:35:59;18.90;99.90
21787;DHT22;11055;50.870;4.316;2023-07-31T02:38:25;18.90;99.90
21787;DHT22;11055;50.870;4.316;2023-07-31T02:40:50;18.90;99.90
21787;DHT22;11055;50.870;4.316;2023-07-31T02:43:16;19.00;99.90
21787;DHT22;11055;50.870;4.316;2023-07-31T02:45:42;18.90;99.90
21787;DHT22;11055;50.870;4.316;2023-07-31T02:48:07;18.90;99.90
21787;DHT22;11055;50.870;4.316;2023-07-31T02:50:33;18.80;99.90
21787;DHT22;11055;50.870;4.316;2023-07-31T02:52:59;18.80;99.90
21787;DHT22;11055;50.870;4.316;2023-07-31T02:55:24;18.80;99.90
21787;DHT22;11055;50.870;4.316;2023-07-31T02:57:50;18.80;99.90
21787;DHT22;11055;50.870;4.316;2023-07-31T03:00:17;18.70;99.90
21787;DHT22;11055;50.870;4.316;2023-07-31T03:02:43;18.70;99.90
21787;DHT22;11055;50.870;4.316;2023-07-31T03:05:08;18.70;99.90
21787;DHT22;11055;50.870;4.316;2023-07-31T03:07:35;18.70;99.90
21787;DHT22;11055;50.870;4.316;2023-07-31T03:10:01;18.60;99.90
21787;DHT22;11055;50.870;4.316;2023-07-31T03:12:27;18.70;99.90
21787;DHT22;11055;50.870;4.316;2023-07-31T03:14:52;18.70;99.90
21787;DHT22;11055;50.870;4.316;2023-07-31T03:17:18;18.50;99.90
21787;DHT22;11055;50.870;4.316;2023-07-31T03:19:43;18.40;99.90
21787;DHT22;11055;50.870;4.316;2023-07-31T03:22:09;18.50;99.90
21787;DHT22;11055;50.870;4.316;2023-07-31T03:24:35;18.50;99.90
21787;DHT22;11055;50.870;4.316;2023-07-31T03:27:00;18.60;99.90
21787;DHT22;11055;50.870;4.316;2023-07-31T03:29:26;18.60;99.90
21787;DHT22;11055;50.870;4.316;2023-07-31T03:31:51;18.60;99.90
21787;DHT22;11055;50.870;4.316;2023-07-31T03:34:17;18.40;99.90
21787;DHT22;11055;50.870;4.316;2023-07-31T03:36:43;18.50;99.90
21787;DHT22;11055;50.870;4.316;2023-07-31T03:39:09;18.50;99.90
21787;DHT22;11055;50.870;4.316;2023-07-31T03:41:35;18.60;99.90
21787;DHT22;11055;50.870;4.316;2023-07-31T03:44:00;18.60;99.90
21787;DHT22;11055;50.870;4.316;2023-07-31T03:46:26;18.50;99.90
21787;DHT22;11055;50.870;4.316;2023-07-31T03:48:52;18.50;99.90
21787;DHT22;11055;50.870;4.316;2023-07-31T03:51:18;18.50;99.90
21787;DHT22;11055;50.870;4.316;2023-07-31T03:53:44;18.50;99.90
21787;DHT22;11055;50.870;4.316;2023-07-31T03:56:09;18.60;99.90
21787;DHT22;11055;50.870;4.316;2023-07-31T03:58:35;18.60;99.90
21787;DHT22;11055;50.870;4.316;2023-07-31T04:01:02;18.60;99.90
21787;DHT22;11055;50.870;4.316;2023-07-31T04:03:29;18.60;99.90
21787;DHT22;11055;50.870;4.316;2023-07-31T04:05:55;18.60;99.90
21787;DHT22;11055;50.870;4.316;2023-07-31T04:08:24;18.60;99.90
21787;DHT22;11055;50.870;4.316;2023-07-31T04:10:50;18.60;99.90
21787;DHT22;11055;50.870;4.316;2023-07-31T04:13:15;18.50;99.90
21787;DHT22;11055;50.870;4.316;2023-07-31T04:15:41;18.40;99.90
21787;DHT22;11055;50.870;4.316;2023-07-31T04:18:07;18.20;99.90
21787;DHT22;11055;50.870;4.316;2023-07-31T04:20:33;18.20;99.90
21787;DHT22;11055;50.870;4.316;2023-07-31T04:22:58;18.10;99.90
21787;DHT22;11055;50.870;4.316;2023-07-31T04:25:24;18.20;99.90
21787;DHT22;11055;50.870;4.316;2023-07-31T04:27:50;18.30;99.90
21787;DHT22;11055;50.870;4.316;2023-07-31T04:30:15;18.40;99.90
21787;DHT22;11055;50.870;4.316;2023-07-31T04:32:41;18.30;99.90
21787;DHT22;11055;50.870;4.316;2023-07-31T04:35:07;18.20;99.90
21787;DHT22;11055;50.870;4.316;2023-07-31T04:37:32;18.30;99.90
21787;DHT22;11055;50.870;4.316;2023-07-31T04:39:58;18.40;99.90
21787;DHT22;11055;50.870;4.316;2023-07-31T04:42:24;18.30;99.90
21787;DHT22;11055;50.870;4.316;2023-07-31T04:44:49;18.40;99.90
21787;DHT22;11055;50.870;4.316;2023-07-31T04:47:15;18.40;99.90
21787;DHT22;11055;50.870;4.316;2023-07-31T04:49:41;18.50;99.90
21787;DHT22;11055;50.870;4.316;2023-07-31T04:52:06;18.70;99.90
21787;DHT22;11055;50.870;4.316;2023-07-31T04:54:32;18.70;99.90
21787;DHT22;11055;50.870;4.316;2023-07-31T04:56:58;18.70;99.90
21787;DHT22;11055;50.870;4.316;2023-07-31T04:59:23;18.80;99.90
21787;DHT22;11055;50.870;4.316;2023-07-31T05:01:49;18.60;99.90
21787;DHT22;11055;50.870;4.316;2023-07-31T05:04:15;18.50;99.90
21787;DHT22;11055;50.870;4.316;2023-07-31T05:06:41;18.40;99.90
21787;DHT22;11055;50.870;4.316;2023-07-31T05:09:07;18.30;99.90
21787;DHT22;11055;50.870;4.316;2023-07-31T05:11:34;18.30;99.90
21787;DHT22;11055;50.870;4.316;2023-07-31T05:14:00;18.20;99.90
21787;DHT22;11055;50.870;4.316;2023-07-31T05:16:26;18.10;99.90
21787;DHT22;11055;50.870;4.316;2023-07-31T05:18:51;18.10;99.90
21787;DHT22;11055;50.870;4.316;2023-07-31T05:21:17;18.20;99.90
21787;DHT22;11055;50.870;4.316;2023-07-31T05:23:43;18.40;99.90
21787;DHT22;11055;50.870;4.316;2023-07-31T05:26:08;18.20;99.90
21787;DHT22;11055;50.870;4.316;2023-07-31T05:28:37;18.10;99.90
21787;DHT22;11055;50.870;4.316;2023-07-31T05:31:04;18.10;99.90
21787;DHT22;11055;50.870;4.316;2023-07-31T05:33:30;18.20;99.90
21787;DHT22;11055;50.870;4.316;2023-07-31T05:35:56;18.10;99.90
21787;DHT22;11055;50.870;4.316;2023-07-31T05:38:22;18.10;99.90
21787;DHT22;11055;50.870;4.316;2023-07-31T05:40:48;18.10;99.90
21787;DHT22;11055;50.870;4.316;2023-07-31T05:43:14;18.10;99.90
21787;DHT22;11055;50.870;4.316;2023-07-31T05:45:41;18.10;99.90
21787;DHT22;11055;50.870;4.316;2023-07-31T05:48:07;18.30;99.90
21787;DHT22;11055;50.870;4.316;2023-07-31T05:50:32;18.20;99.90
21787;DHT22;11055;50.870;4.316;2023-07-31T05:52:58;18.30;99.90
21787;DHT22;11055;50.870;4.316;2023-07-31T05:55:24;18.40;99.90
21787;DHT22;11055;50.870;4.316;2023-07-31T05:57:52;18.30;99.90
21787;DHT22;11055;50.870;4.316;2023-07-31T06:00:18;18.20;99.90
21787;DHT22;11055;50.870;4.316;2023-07-31T06:02:44;18.10;99.90
21787;DHT22;11055;50.870;4.316;2023-07-31T06:05:09;18.20;99.90
21787;DHT22;11055;50.870;4.316;2023-07-31T06:07:35;18.20;99.90
21787;DHT22;11055;50.870;4.316;2023-07-31T06:10:01;18.20;99.90
21787;DHT22;11055;50.870;4.316;2023-07-31T06:12:31;18.20;99.90
21787;DHT22;11055;50.870;4.316;2023-07-31T06:14:57;18.30;99.90
21787;DHT22;11055;50.870;4.316;2023-07-31T06:17:22;18.20;99.90
21787;DHT22;11055;50.870;4.316;2023-07-31T06:19:48;17.90;99.90
21787;DHT22;11055;50.870;4.316;2023-07-31T06:22:14;17.90;99.90
21787;DHT22;11055;50.870;4.316;2023-07-31T06:24:40;17.80;99.90
21787;DHT22;11055;50.870;4.316;2023-07-31T06:27:06;17.70;99.90
21787;DHT22;11055;50.870;4.316;2023-07-31T06:29:32;17.70;99.90
21787;DHT22;11055;50.870;4.316;2023-07-31T06:31:58;17.70;99.90
21787;DHT22;11055;50.870;4.316;2023-07-31T06:34:23;17.80;99.90
21787;DHT22;11055;50.870;4.316;2023-07-31T06:36:49;17.70;99.90
21787;DHT22;11055;50.870;4.316;2023-07-31T06:39:14;17.80;99.90
21787;DHT22;11055;50.870;4.316;2023-07-31T06:41:40;17.90;99.90
21787;DHT22;11055;50.870;4.316;2023-07-31T06:44:06;18.00;99.90
21787;DHT22;11055;50.870;4.316;2023-07-31T06:46:31;18.10;99.90
21787;DHT22;11055;50.870;4.316;2023-07-31T06:48:57;18.20;99.90
21787;DHT22;11055;50.870;4.316;2023-07-31T06:51:23;18.20;99.90
21787;DHT22;11055;50.870;4.316;2023-07-31T06:53:48;18.20;99.90
21787;DHT22;11055;50.870;4.316;2023-07-31T06:56:14;18.30;99.90
21787;DHT22;11055;50.870;4.316;2023-07-31T06:58:39;18.40;99.90
21787;DHT22;11055;50.870;4.316;2023-07-31T07:01:05;18.30;99.90
21787;DHT22;11055;50.870;4.316;2023-07-31T07:03:31;18.20;99.90
21787;DHT22;11055;50.870;4.316;2023-07-31T07:05:57;18.20;99.90
21787;DHT22;11055;50.870;4.316;2023-07-31T07:08:24;18.20;99.90
21787;DHT22;11055;50.870;4.316;2023-07-31T07:10:49;18.20;99.90
21787;DHT22;11055;50.870;4.316;2023-07-31T07:13:15;18.20;99.90
21787;DHT22;11055;50.870;4.316;2023-07-31T07:15:41;18.20;99.90
21787;DHT22;11055;50.870;4.316;2023-07-31T07:18:07;18.30;99.90
21787;DHT22;11055;50.870;4.316;2023-07-31T07:20:32;18.40;99.90
21787;DHT22;11055;50.870;4.316;2023-07-31T07:22:58;18.50;99.90
21787;DHT22;11055;50.870;4.316;2023-07-31T07:25:24;18.40;99.90
21787;DHT22;11055;50.870;4.316;2023-07-31T07:27:49;18.40;99.90
21787;DHT22;11055;50.870;4.316;2023-07-31T07:30:15;18.30;99.90
21787;DHT22;11055;50.870;4.316;2023-07-31T07:32:40;18.20;99.90
21787;DHT22;11055;50.870;4.316;2023-07-31T07:35:07;18.10;99.90
21787;DHT22;11055;50.870;4.316;2023-07-31T07:37:32;18.10;99.90
21787;DHT22;11055;50.870;4.316;2023-07-31T07:39:59;18.00;99.90
21787;DHT22;11055;50.870;4.316;2023-07-31T07:42:24;18.10;99.90
21787;DHT22;11055;50.870;4.316;2023-07-31T07:44:50;18.20;99.90
21787;DHT22;11055;50.870;4.316;2023-07-31T07:47:16;18.30;99.90
21787;DHT22;11055;50.870;4.316;2023-07-31T07:49:42;18.40;99.90
21787;DHT22;11055;50.870;4.316;2023-07-31T07:52:07;18.40;99.90
21787;DHT22;11055;50.870;4.316;2023-07-31T07:54:33;18.30;99.90
21787;DHT22;11055;50.870;4.316;2023-07-31T07:56:59;18.30;99.90
21787;DHT22;11055;50.870;4.316;2023-07-31T07:59:25;18.20;99.90
21787;DHT22;11055;50.870;4.316;2023-07-31T08:01:50;18.20;99.90
21787;DHT22;11055;50.870;4.316;2023-07-31T08:04:16;18.20;99.90
21787;DHT22;11055;50.870;4.316;2023-07-31T08:06:41;18.30;99.90
21787;DHT22;11055;50.870;4.316;2023-07-31T08:09:07;18.30;99.90
21787;DHT22;11055;50.870;4.316;2023-07-31T08:11:34;18.30;99.90
21787;DHT22;11055;50.870;4.316;2023-07-31T08:14:00;18.20;99.90
21787;DHT22;11055;50.870;4.316;2023-07-31T08:16:25;18.20;99.90
21787;DHT22;11055;50.870;4.316;2023-07-31T08:18:51;18.10;99.90
21787;DHT22;11055;50.870;4.316;2023-07-31T08:21:16;18.20;99.90
21787;DHT22;11055;50.870;4.316;2023-07-31T08:23:42;18.30;99.90
21787;DHT22;11055;50.870;4.316;2023-07-31T08:26:08;18.20;99.90
21787;DHT22;11055;50.870;4.316;2023-07-31T08:28:33;18.20;99.90
21787;DHT22;11055;50.870;4.316;2023-07-31T08:31:00;18.10;99.90
21787;DHT22;11055;50.870;4.316;2023-07-31T08:33:26;17.90;99.90
21787;DHT22;11055;50.870;4.316;2023-07-31T08:35:51;18.00;99.90
21787;DHT22;11055;50.870;4.316;2023-07-31T08:38:17;18.00;99.90
21787;DHT22;11055;50.870;4.316;2023-07-31T08:40:42;18.10;99.90
21787;DHT22;11055;50.870;4.316;2023-07-31T08:43:09;18.10;99.90
21787;DHT22;11055;50.870;4.316;2023-07-31T08:45:34;18.10;99.90
21787;DHT22;11055;50.870;4.316;2023-07-31T08:48:00;18.10;99.90
21787;DHT22;11055;50.870;4.316;2023-07-31T08:50:26;18.10;99.90
21787;DHT22;11055;50.870;4.316;2023-07-31T08:52:53;18.20;99.90
21787;DHT22;11055;50.870;4.316;2023-07-31T08:55:19;18.00;99.90
21787;DHT22;11055;50.870;4.316;2023-07-31T08:57:51;18.00;99.90
21787;DHT22;11055;50.870;4.316;2023-07-31T09:00:16;18.10;99.90
21787;DHT22;11055;50.870;4.316;2023-07-31T09:02:46;18.30;99.90
21787;DHT22;11055;50.870;4.316;2023-07-31T09:05:12;18.30;99.90
21787;DHT22;11055;50.870;4.316;2023-07-31T09:07:38;18.30;99.90
21787;DHT22;11055;50.870;4.316;2023-07-31T09:10:05;18.40;99.90
21787;DHT22;11055;50.870;4.316;2023-07-31T09:12:31;18.40;99.90
21787;DHT22;11055;50.870;4.316;2023-07-31T09:15:00;18.50;99.90
21787;DHT22;11055;50.870;4.316;2023-07-31T09:17:34;18.40;99.90
21787;DHT22;11055;50.870;4.316;2023-07-31T09:20:20;18.50;99.90
21787;DHT22;11055;50.870;4.316;2023-07-31T09:22:47;18.50;99.90
21787;DHT22;11055;50.870;4.316;2023-07-31T09:25:16;18.60;99.90
21787;DHT22;11055;50.870;4.316;2023-07-31T09:27:50;18.60;99.90
21787;DHT22;11055;50.870;4.316;2023-07-31T09:30:17;18.80;99.90
21787;DHT22;11055;50.870;4.316;2023-07-31T09:32:45;18.80;99.90
21787;DHT22;11055;50.870;4.316;2023-07-31T09:37:39;18.60;99.90
21787;DHT22;11055;50.870;4.316;2023-07-31T09:40:05;18.50;99.90
21787;DHT22;11055;50.870;4.316;2023-07-31T09:42:31;18.60;99.90
21787;DHT22;11055;50.870;4.316;2023-07-31T09:45:07;18.50;99.90
21787;DHT22;11055;50.870;4.316;2023-07-31T09:47:34;18.60;99.90
21787;DHT22;11055;50.870;4.316;2023-07-31T09:50:00;18.80;99.90
21787;DHT22;11055;50.870;4.316;2023-07-31T09:52:26;18.80;99.90
21787;DHT22;11055;50.870;4.316;2023-07-31T09:54:52;18.80;99.90
21787;DHT22;11055;50.870;4.316;2023-07-31T09:57:20;18.80;99.90
21787;DHT22;11055;50.870;4.316;2023-07-31T09:59:48;18.70;99.90
21787;DHT22;11055;50.870;4.316;2023-07-31T10:02:18;18.70;99.90
21787;DHT22;11055;50.870;4.316;2023-07-31T10:04:49;18.70;99.90
21787;DHT22;11055;50.870;4.316;2023-07-31T10:07:17;18.70;99.90
21787;DHT22;11055;50.870;4.316;2023-07-31T10:09:44;18.70;99.90
21787;DHT22;11055;50.870;4.316;2023-07-31T10:12:12;18.60;99.90
21787;DHT22;11055;50.870;4.316;2023-07-31T10:14:41;18.60;99.90
21787;DHT22;11055;50.870;4.316;2023-07-31T10:17:08;18.60;99.90
21787;DHT22;11055;50.870;4.316;2023-07-31T10:19:34;18.60;99.90
21787;DHT22;11055;50.870;4.316;2023-07-31T10:22:02;18.80;99.90
21787;DHT22;11055;50.870;4.316;2023-07-31T10:24:29;18.90;99.90
21787;DHT22;11055;50.870;4.316;2023-07-31T10:26:58;18.90;99.90
21787;DHT22;11055;50.870;4.316;2023-07-31T10:29:26;18.80;99.90
21787;DHT22;11055;50.870;4.316;2023-07-31T10:31:53;18.90;99.90
21787;DHT22;11055;50.870;4.316;2023-07-31T10:34:21;18.80;99.90
21787;DHT22;11055;50.870;4.316;2023-07-31T10:36:47;18.90;99.90
21787;DHT22;11055;50.870;4.316;2023-07-31T10:39:37;19.00;99.90
21787;DHT22;11055;50.870;4.316;2023-07-31T10:42:13;18.90;99.90
21787;DHT22;11055;50.870;4.316;2023-07-31T10:44:44;19.00;99.90
21787;DHT22;11055;50.870;4.316;2023-07-31T10:47:10;19.10;99.90
21787;DHT22;11055;50.870;4.316;2023-07-31T10:49:39;19.10;99.90
21787;DHT22;11055;50.870;4.316;2023-07-31T10:52:05;19.10;99.90
21787;DHT22;11055;50.870;4.316;2023-07-31T10:54:35;19.10;99.90
21787;DHT22;11055;50.870;4.316;2023-07-31T10:57:01;19.10;99.90
21787;DHT22;11055;50.870;4.316;2023-07-31T10:59:27;19.10;99.90
21787;DHT22;11055;50.870;4.316;2023-07-31T11:01:55;19.20;99.90
21787;DHT22;11055;50.870;4.316;2023-07-31T11:04:27;19.30;99.90
21787;DHT22;11055;50.870;4.316;2023-07-31T11:07:00;19.30;99.90
21787;DHT22;11055;50.870;4.316;2023-07-31T11:09:31;19.30;99.90
21787;DHT22;11055;50.870;4.316;2023-07-31T11:11:59;19.30;99.90
21787;DHT22;11055;50.870;4.316;2023-07-31T11:14:24;19.40;99.90
21787;DHT22;11055;50.870;4.316;2023-07-31T11:16:51;19.50;99.90
21787;DHT22;11055;50.870;4.316;2023-07-31T11:19:26;19.40;99.90
21787;DHT22;11055;50.870;4.316;2023-07-31T11:21:52;19.40;99.90
21787;DHT22;11055;50.870;4.316;2023-07-31T11:24:21;19.40;99.90
21787;DHT22;11055;50.870;4.316;2023-07-31T11:26:53;19.40;99.90
21787;DHT22;11055;50.870;4.316;2023-07-31T11:29:19;19.60;99.90
21787;DHT22;11055;50.870;4.316;2023-07-31T11:31:46;19.60;99.90
21787;DHT22;11055;50.870;4.316;2023-07-31T11:34:12;19.60;99.90
21787;DHT22;11055;50.870;4.316;2023-07-31T11:36:37;19.50;99.90
21787;DHT22;11055;50.870;4.316;2023-07-31T11:39:08;19.50;99.90
21787;DHT22;11055;50.870;4.316;2023-07-31T11:41:34;19.60;99.90
21787;DHT22;11055;50.870;4.316;2023-07-31T11:44:00;19.60;99.90
21787;DHT22;11055;50.870;4.316;2023-07-31T11:46:26;19.70;99.90
21787;DHT22;11055;50.870;4.316;2023-07-31T11:48:52;19.70;99.90
21787;DHT22;11055;50.870;4.316;2023-07-31T11:51:24;19.60;99.90
21787;DHT22;11055;50.870;4.316;2023-07-31T11:53:58;19.50;99.90
21787;DHT22;11055;50.870;4.316;2023-07-31T11:56:26;19.50;99.90
21787;DHT22;11055;50.870;4.316;2023-07-31T11:58:57;19.50;99.90
21787;DHT22;11055;50.870;4.316;2023-07-31T12:01:24;19.60;99.90
21787;DHT22;11055;50.870;4.316;2023-07-31T12:03:50;19.70;99.90
21787;DHT22;11055;50.870;4.316;2023-07-31T12:06:16;19.70;99.90
21787;DHT22;11055;50.870;4.316;2023-07-31T12:08:42;19.70;99.90
21787;DHT22;11055;50.870;4.316;2023-07-31T12:11:09;19.70;99.90
21787;DHT22;11055;50.870;4.316;2023-07-31T12:13:39;19.70;99.90
21787;DHT22;11055;50.870;4.316;2023-07-31T12:16:04;19.80;99.90
21787;DHT22;11055;50.870;4.316;2023-07-31T12:18:36;19.70;99.90
21787;DHT22;11055;50.870;4.316;2023-07-31T12:21:04;19.80;99.90
21787;DHT22;11055;50.870;4.316;2023-07-31T12:23:31;19.80;99.90
21787;DHT22;11055;50.870;4.316;2023-07-31T12:28:46;19.90;99.90
21787;DHT22;11055;50.870;4.316;2023-07-31T12:31:16;19.90;99.90
21787;DHT22;11055;50.870;4.316;2023-07-31T12:33:43;20.00;99.90
21787;DHT22;11055;50.870;4.316;2023-07-31T12:36:14;20.00;99.90
21787;DHT22;11055;50.870;4.316;2023-07-31T12:38:41;20.10;99.90
21787;DHT22;11055;50.870;4.316;2023-07-31T12:41:07;20.10;99.90
21787;DHT22;11055;50.870;4.316;2023-07-31T12:43:39;20.10;99.90
21787;DHT22;11055;50.870;4.316;2023-07-31T12:46:05;20.10;99.90
21787;DHT22;11055;50.870;4.316;2023-07-31T12:48:31;20.10;99.90
21787;DHT22;11055;50.870;4.316;2023-07-31T12:50:57;20.10;99.90
21787;DHT22;11055;50.870;4.316;2023-07-31T12:53:23;20.10;99.90
21787;DHT22;11055;50.870;4.316;2023-07-31T12:55:49;20.10;99.90
21787;DHT22;11055;50.870;4.316;2023-07-31T12:58:14;20.10;99.90
21787;DHT22;11055;50.870;4.316;2023-07-31T13:00:40;20.10;99.90
21787;DHT22;11055;50.870;4.316;2023-07-31T13:03:05;20.10;99.90
21787;DHT22;11055;50.870;4.316;2023-07-31T13:05:31;20.20;99.90
21787;DHT22;11055;50.870;4.316;2023-07-31T13:07:57;20.10;99.90
21787;DHT22;11055;50.870;4.316;2023-07-31T13:10:23;20.00;99.90
21787;DHT22;11055;50.870;4.316;2023-07-31T13:12:49;19.80;99.90
21787;DHT22;11055;50.870;4.316;2023-07-31T13:15:15;19.80;99.90
21787;DHT22;11055;50.870;4.316;2023-07-31T13:17:41;19.70;99.90
21787;DHT22;11055;50.870;4.316;2023-07-31T13:20:08;19.70;99.90
21787;DHT22;11055;50.870;4.316;2023-07-31T13:22:33;19.60;99.90
21787;DHT22;11055;50.870;4.316;2023-07-31T13:24:59;19.50;99.90
21787;DHT22;11055;50.870;4.316;2023-07-31T13:27:25;19.50;99.90
21787;DHT22;11055;50.870;4.316;2023-07-31T13:29:53;19.60;99.90
21787;DHT22;11055;50.870;4.316;2023-07-31T13:32:20;19.50;99.90
21787;DHT22;11055;50.870;4.316;2023-07-31T13:34:47;19.50;99.90
21787;DHT22;11055;50.870;4.316;2023-07-31T13:37:13;19.40;99.90
21787;DHT22;11055;50.870;4.316;2023-07-31T13:39:39;19.40;99.90
21787;DHT22;11055;50.870;4.316;2023-07-31T13:42:07;19.50;99.90
21787;DHT22;11055;50.870;4.316;2023-07-31T13:44:36;19.60;99.90
21787;DHT22;11055;50.870;4.316;2023-07-31T13:47:02;19.60;99.90
21787;DHT22;11055;50.870;4.316;2023-07-31T13:49:29;19.60;99.90
21787;DHT22;11055;50.870;4.316;2023-07-31T13:51:55;19.60;99.90
21787;DHT22;11055;50.870;4.316;2023-07-31T13:54:22;19.50;99.90
21787;DHT22;11055;50.870;4.316;2023-07-31T13:56:48;19.60;99.90
21787;DHT22;11055;50.870;4.316;2023-07-31T13:59:14;19.60;99.90
21787;DHT22;11055;50.870;4.316;2023-07-31T14:01:42;19.60;99.90
21787;DHT22;11055;50.870;4.316;2023-07-31T14:04:08;19.50;99.90
21787;DHT22;11055;50.870;4.316;2023-07-31T14:06:34;19.30;99.90
21787;DHT22;11055;50.870;4.316;2023-07-31T14:08:59;19.30;99.90
21787;DHT22;11055;50.870;4.316;2023-07-31T14:11:26;19.30;99.90
21787;DHT22;11055;50.870;4.316;2023-07-31T14:13:51;19.30;99.90
21787;DHT22;11055;50.870;4.316;2023-07-31T14:16:18;19.40;99.90
21787;DHT22;11055;50.870;4.316;2023-07-31T14:18:43;19.30;99.90
21787;DHT22;11055;50.870;4.316;2023-07-31T14:21:11;19.30;99.90
21787;DHT22;11055;50.870;4.316;2023-07-31T14:23:37;19.40;99.90
21787;DHT22;11055;50.870;4.316;2023-07-31T14:26:02;19.30;99.90
21787;DHT22;11055;50.870;4.316;2023-07-31T14:28:28;19.40;99.90
21787;DHT22;11055;50.870;4.316;2023-07-31T14:30:53;19.40;99.90
21787;DHT22;11055;50.870;4.316;2023-07-31T14:33:19;19.30;99.90
21787;DHT22;11055;50.870;4.316;2023-07-31T14:35:45;19.10;99.90
21787;DHT22;11055;50.870;4.316;2023-07-31T14:38:10;19.20;99.90
21787;DHT22;11055;50.870;4.316;2023-07-31T14:40:36;19.20;99.90
21787;DHT22;11055;50.870;4.316;2023-07-31T14:43:04;19.30;99.90
21787;DHT22;11055;50.870;4.316;2023-07-31T14:45:29;19.30;99.90
21787;DHT22;11055;50.870;4.316;2023-07-31T14:47:55;19.30;99.90
21787;DHT22;11055;50.870;4.316;2023-07-31T14:50:21;19.20;99.90
21787;DHT22;11055;50.870;4.316;2023-07-31T14:52:49;19.20;99.90
21787;DHT22;11055;50.870;4.316;2023-07-31T14:55:15;19.20;99.90
21787;DHT22;11055;50.870;4.316;2023-07-31T14:57:41;19.10;99.90
21787;DHT22;11055;50.870;4.316;2023-07-31T15:00:07;19.10;99.90
21787;DHT22;11055;50.870;4.316;2023-07-31T15:02:36;19.10;99.90
21787;DHT22;11055;50.870;4.316;2023-07-31T15:05:02;19.10;99.90
21787;DHT22;11055;50.870;4.316;2023-07-31T15:07:27;19.10;99.90
21787;DHT22;11055;50.870;4.316;2023-07-31T15:09:54;19.10;99.90
21787;DHT22;11055;50.870;4.316;2023-07-31T15:12:19;19.20;99.90
21787;DHT22;11055;50.870;4.316;2023-07-31T15:14:45;19.20;99.90
21787;DHT22;11055;50.870;4.316;2023-07-31T15:17:11;19.10;99.90
21787;DHT22;11055;50.870;4.316;2023-07-31T15:19:36;19.20;99.90
21787;DHT22;11055;50.870;4.316;2023-07-31T15:22:03;19.20;99.90
21787;DHT22;11055;50.870;4.316;2023-07-31T15:24:29;19.10;99.90
21787;DHT22;11055;50.870;4.316;2023-07-31T15:26:55;19.10;99.90
21787;DHT22;11055;50.870;4.316;2023-07-31T15:29:21;19.00;99.90
21787;DHT22;11055;50.870;4.316;2023-07-31T15:31:47;19.10;99.90
21787;DHT22;11055;50.870;4.316;2023-07-31T15:34:14;19.20;99.90
21787;DHT22;11055;50.870;4.316;2023-07-31T15:36:40;19.20;99.90
21787;DHT22;11055;50.870;4.316;2023-07-31T15:39:06;19.20;99.90